This is the latest recevied weather packets stored in our database for station/object IW8ELN-10. If no packets are shown the sender has not sent any weather packets the latest 10 day(s).
| Time | Temp. | Humidity | Pressure | Rain* | Wind** | Luminosity | Snow |
|---|---|---|---|---|---|---|---|
| 1777606971 | 12.22° C | 57% | 995.2 hPa | - | - | - | - |
| 1777603371 | 12.22° C | 57% | 995.3 hPa | - | - | - | - |
| 1777599771 | 12.78° C | 57% | 995.5 hPa | - | - | - | - |
| 1777596171 | 12.22° C | 58% | 995.5 hPa | - | - | - | - |
| 1777592570 | 12.22° C | 58% | 995.7 hPa | - | - | - | - |
| 1777588970 | 12.78° C | 58% | 995.9 hPa | - | - | - | - |
| 1777585370 | 12.78° C | 59% | 996 hPa | - | - | - | - |
| 1777581770 | 13.33° C | 58% | 995.9 hPa | - | - | - | - |
| 1777578177 | 13.89° C | 57% | 995.6 hPa | - | - | - | - |
| 1777574570 | 13.89° C | 55% | 995.2 hPa | - | - | - | - |
| 1777570977 | 14.44° C | 55% | 994.2 hPa | - | - | - | - |
| 1777567370 | 15° C | 55% | 993.9 hPa | - | - | - | - |
| 1777563770 | 15° C | 57% | 993.6 hPa | - | - | - | - |
| 1777560169 | 15° C | 60% | 993.4 hPa | - | - | - | - |
| 1777556569 | 13.89° C | 63% | 990.5 hPa | - | - | - | - |
| 1777527775 | 14.44° C | 74% | 991.7 hPa | - | - | - | - |
| 1777524168 | 13.89° C | 74% | 996 hPa | - | - | - | - |
| 1777520568 | 14.44° C | 71% | 990.9 hPa | - | - | - | - |
| 1777516968 | 14.44° C | 71% | 990.7 hPa | - | - | - | - |
| 1777513378 | 13.89° C | 73% | 990.5 hPa | - | - | - | - |
| 1777509768 | 14.44° C | 67% | 990.2 hPa | - | - | - | - |
| 1777506168 | -5° C | 68% | 960.6 hPa | - | - | - | - |
| 1777502568 | -8.33° C | 62% | 954.6 hPa | - | - | - | - |
| 1777498968 | 15° C | 60% | 989.6 hPa | - | - | - | - |
| 1777495374 | 15° C | 60% | 990 hPa | - | - | - | - |
* Rain since midnight (hover to see other rain measurements)
** Current wind speed in m/s (hover to see current wind gust speed)